createdAt,value
2023-04-14T00:00:01.659Z,7.43
2023-04-14T00:02:29.076Z,8.00
2023-04-14T00:04:56.426Z,7.77
2023-04-14T00:07:23.708Z,8.10
2023-04-14T00:09:51.113Z,8.60
2023-04-14T00:12:18.305Z,8.10
2023-04-14T00:14:45.608Z,8.83
2023-04-14T00:17:12.856Z,8.57
2023-04-14T00:19:40.248Z,9.13
2023-04-14T00:22:07.402Z,9.53
2023-04-14T00:24:40.849Z,8.80
2023-04-14T00:27:08.045Z,8.43
2023-04-14T00:29:35.537Z,9.40
2023-04-14T00:32:02.698Z,9.40
2023-04-14T00:34:30.130Z,9.53
2023-04-14T00:36:57.305Z,9.23
2023-04-14T00:39:24.518Z,9.17
2023-04-14T00:41:52.018Z,8.90
2023-04-14T00:44:19.524Z,9.33
2023-04-14T00:46:47.043Z,9.37
2023-04-14T00:49:14.257Z,9.73
2023-04-14T00:51:41.817Z,8.67
2023-04-14T00:54:09.443Z,9.53
2023-04-14T00:56:36.691Z,9.40
2023-04-14T00:59:04.054Z,8.67
2023-04-14T01:01:31.693Z,9.17
2023-04-14T01:03:59.073Z,8.90
2023-04-14T01:06:27.196Z,9.77
2023-04-14T01:08:55.584Z,9.77
2023-04-14T01:11:31.359Z,9.03
2023-04-14T01:14:09.811Z,9.03
2023-04-14T01:16:39.090Z,8.43
2023-04-14T01:19:21.458Z,9.03
2023-04-14T01:21:51.243Z,9.23
2023-04-14T01:24:36.852Z,8.97
2023-04-14T01:27:07.771Z,8.57
2023-04-14T01:29:39.372Z,8.53
2023-04-14T01:32:15.884Z,8.33
2023-04-14T01:35:06.265Z,9.43
2023-04-14T01:37:35.635Z,8.97
2023-04-14T01:40:10.335Z,8.97
2023-04-14T01:42:38.764Z,8.70
2023-04-14T01:45:10.956Z,9.57
2023-04-14T01:47:38.510Z,8.67
2023-04-14T01:50:06.525Z,9.20
2023-04-14T01:52:35.088Z,9.07
2023-04-14T01:55:05.889Z,9.23
2023-04-14T01:57:37.409Z,9.40
2023-04-14T02:00:05.279Z,8.97
2023-04-14T02:02:33.602Z,8.67
2023-04-14T02:05:01.529Z,9.30
2023-04-14T02:07:30.155Z,9.33
2023-04-14T02:09:57.838Z,9.67
2023-04-14T02:12:25.358Z,9.73
2023-04-14T02:14:54.009Z,9.43
2023-04-14T02:17:22.554Z,9.93
2023-04-14T02:19:50.510Z,9.43
2023-04-14T02:22:18.112Z,9.73
2023-04-14T02:24:45.335Z,10.17
2023-04-14T02:27:15.324Z,10.00
2023-04-14T02:29:43.913Z,10.03
2023-04-14T02:32:15.834Z,10.70
2023-04-14T02:34:51.792Z,10.17
2023-04-14T02:37:26.746Z,10.07
2023-04-14T02:39:59.602Z,10.07
2023-04-14T02:42:28.249Z,10.50
2023-04-14T02:45:03.253Z,10.90
2023-04-14T02:47:32.811Z,11.63
2023-04-14T02:50:01.247Z,11.07
2023-04-14T02:52:31.439Z,10.87
2023-04-14T02:54:59.942Z,10.67
2023-04-14T02:57:27.313Z,10.23
2023-04-14T02:59:55.569Z,10.63
2023-04-14T03:02:23.154Z,10.97
2023-04-14T03:04:50.662Z,10.13
2023-04-14T03:07:18.399Z,10.20
2023-04-14T03:09:47.966Z,10.10
2023-04-14T03:12:16.664Z,10.93
2023-04-14T03:14:43.936Z,10.17
2023-04-14T03:17:11.441Z,9.37
2023-04-14T03:19:41.800Z,10.30
2023-04-14T03:22:09.776Z,10.00
2023-04-14T03:24:37.451Z,9.23
2023-04-14T03:27:31.722Z,9.87
2023-04-14T03:30:06.902Z,10.30
2023-04-14T03:32:37.098Z,9.90
2023-04-14T03:35:04.911Z,9.40
2023-04-14T03:37:34.449Z,10.17
2023-04-14T03:40:05.996Z,9.90
2023-04-14T03:42:36.332Z,10.10
2023-04-14T03:45:04.339Z,9.33
2023-04-14T03:47:31.961Z,9.97
2023-04-14T03:50:01.348Z,8.97
2023-04-14T03:52:30.150Z,8.83
2023-04-14T03:54:59.780Z,9.43
2023-04-14T03:57:29.272Z,9.07
2023-04-14T03:59:57.112Z,8.70
2023-04-14T04:02:24.979Z,9.27
2023-04-14T04:04:53.270Z,9.37
2023-04-14T04:07:21.564Z,8.63
2023-04-14T04:09:49.706Z,8.63
2023-04-14T04:12:18.713Z,8.73
2023-04-14T04:14:46.019Z,9.33
2023-04-14T04:17:14.613Z,8.73
2023-04-14T04:19:43.510Z,8.57
2023-04-14T04:22:11.979Z,8.30
2023-04-14T04:24:40.720Z,8.93
2023-04-14T04:27:20.392Z,8.30
2023-04-14T04:29:54.307Z,8.53
2023-04-14T04:32:21.597Z,8.23
2023-04-14T04:34:50.404Z,7.70
2023-04-14T04:37:18.828Z,8.43
2023-04-14T04:39:48.145Z,8.20
2023-04-14T04:42:16.583Z,7.80
2023-04-14T04:44:43.767Z,8.63
2023-04-14T04:47:12.025Z,8.30
2023-04-14T04:49:39.180Z,8.90
2023-04-14T04:52:06.379Z,8.47
2023-04-14T04:54:33.986Z,8.07
2023-04-14T04:57:01.184Z,8.60
2023-04-14T04:59:28.360Z,7.93
2023-04-14T05:01:55.900Z,8.67
2023-04-14T05:04:23.308Z,7.57
2023-04-14T05:06:50.451Z,8.20
2023-04-14T05:09:17.837Z,8.33
2023-04-14T05:11:45.009Z,8.23
2023-04-14T05:14:12.152Z,8.40
2023-04-14T05:16:39.472Z,7.77
2023-04-14T05:19:06.680Z,7.63
2023-04-14T05:21:34.070Z,8.37
2023-04-14T05:24:01.584Z,8.30
2023-04-14T05:26:44.607Z,8.43
2023-04-14T05:29:16.010Z,8.73
2023-04-14T05:31:43.618Z,8.17
2023-04-14T05:34:10.914Z,9.30
2023-04-14T05:36:38.095Z,8.30
2023-04-14T05:39:05.244Z,8.23
2023-04-14T05:41:32.418Z,8.43
2023-04-14T05:44:00.405Z,9.27
2023-04-14T05:46:27.883Z,8.07
2023-04-14T05:48:55.362Z,9.17
2023-04-14T05:51:22.600Z,8.83
2023-04-14T05:53:49.765Z,9.20
2023-04-14T05:56:16.953Z,9.13
2023-04-14T05:58:44.173Z,8.53
2023-04-14T06:01:11.390Z,11.07
2023-04-14T06:03:40.602Z,10.03
2023-04-14T06:06:08.778Z,10.33
2023-04-14T06:08:36.122Z,10.30
2023-04-14T06:11:03.952Z,9.03
2023-04-14T06:13:33.613Z,9.33
2023-04-14T06:16:02.849Z,8.80
2023-04-14T06:18:30.205Z,9.77
2023-04-14T06:20:57.385Z,9.63
2023-04-14T06:23:26.750Z,10.83
2023-04-14T06:25:55.035Z,10.30
2023-04-14T06:28:24.020Z,10.30
2023-04-14T06:30:51.323Z,10.23
2023-04-14T06:33:18.597Z,10.83
2023-04-14T06:35:46.032Z,10.90
2023-04-14T06:38:13.241Z,10.53
2023-04-14T06:40:40.581Z,11.33
2023-04-14T06:43:11.055Z,11.80
2023-04-14T06:45:38.375Z,11.13
2023-04-14T06:48:05.884Z,12.00
2023-04-14T06:50:33.102Z,11.87
2023-04-14T06:53:00.479Z,13.33
2023-04-14T06:55:27.732Z,12.23
2023-04-14T06:57:54.959Z,12.77
2023-04-14T07:00:22.494Z,13.07
2023-04-14T07:02:49.721Z,14.13
2023-04-14T07:05:18.223Z,14.90
2023-04-14T07:07:45.479Z,13.67
2023-04-14T07:10:12.822Z,14.43
2023-04-14T07:12:40.044Z,13.87
2023-04-14T07:15:07.641Z,14.17
2023-04-14T07:17:36.765Z,14.90
2023-04-14T07:20:04.791Z,13.90
2023-04-14T07:22:31.930Z,15.13
2023-04-14T07:24:59.269Z,15.70
2023-04-14T07:27:28.715Z,17.03
2023-04-14T07:29:55.914Z,16.57
2023-04-14T07:32:23.163Z,16.53
2023-04-14T07:34:51.248Z,16.10
2023-04-14T07:37:18.644Z,15.90
2023-04-14T07:39:45.891Z,16.27
2023-04-14T07:42:13.907Z,16.23
2023-04-14T07:44:41.157Z,16.73
2023-04-14T07:47:08.342Z,17.13
2023-04-14T07:49:36.513Z,18.97
2023-04-14T07:52:03.697Z,18.60
2023-04-14T07:54:31.768Z,19.33
2023-04-14T07:56:59.127Z,17.53
2023-04-14T07:59:26.467Z,19.40
2023-04-14T08:01:53.774Z,19.13
2023-04-14T08:04:21.049Z,19.13
2023-04-14T08:06:48.271Z,19.90
2023-04-14T08:09:15.690Z,20.87
2023-04-14T08:11:42.919Z,22.37
2023-04-14T08:14:10.095Z,25.52
2023-04-14T08:16:37.752Z,23.33
2023-04-14T08:19:05.411Z,19.87
2023-04-14T08:21:33.106Z,20.13
2023-04-14T08:24:00.394Z,20.60
2023-04-14T08:26:27.610Z,22.27
2023-04-14T08:28:55.746Z,21.43
2023-04-14T08:31:26.197Z,20.83
2023-04-14T08:33:53.470Z,21.70
2023-04-14T08:36:21.106Z,21.33
2023-04-14T08:38:48.394Z,22.57
2023-04-14T08:41:19.372Z,21.97
2023-04-14T08:43:46.630Z,22.03
2023-04-14T08:46:14.902Z,20.90
2023-04-14T08:48:42.854Z,21.77
2023-04-14T08:51:22.426Z,20.80
2023-04-14T08:53:51.622Z,22.47
2023-04-14T08:56:19.341Z,20.87
2023-04-14T08:58:47.346Z,22.33
2023-04-14T09:01:15.100Z,20.80
2023-04-14T09:03:42.805Z,21.17
2023-04-14T09:06:10.114Z,22.67
2023-04-14T09:08:37.317Z,21.20
2023-04-14T09:11:04.894Z,21.10
2023-04-14T09:13:32.420Z,20.67
2023-04-14T09:16:00.278Z,21.13
2023-04-14T09:18:28.841Z,20.43
2023-04-14T09:21:50.317Z,20.90
2023-04-14T09:23:46.754Z,21.67
2023-04-14T09:26:14.163Z,20.70
2023-04-14T09:28:42.130Z,19.80
2023-04-14T09:31:10.564Z,20.27
2023-04-14T09:33:43.894Z,21.37
2023-04-14T09:36:21.211Z,19.70
2023-04-14T09:38:50.838Z,19.53
2023-04-14T09:41:18.881Z,18.57
2023-04-14T09:43:46.217Z,19.60
2023-04-14T09:46:15.474Z,19.93
2023-04-14T09:48:52.840Z,18.80
2023-04-14T09:51:39.135Z,19.20
2023-04-14T09:54:06.749Z,21.13
2023-04-14T09:56:34.198Z,19.10
2023-04-14T09:59:02.991Z,17.93
2023-04-14T10:01:32.223Z,18.80
2023-04-14T10:04:01.385Z,18.60
2023-04-14T10:06:28.913Z,20.00
2023-04-14T10:08:57.125Z,20.33
2023-04-14T10:11:25.191Z,19.37
2023-04-14T10:14:04.239Z,19.67
2023-04-14T10:16:31.842Z,18.70
2023-04-14T10:18:59.745Z,18.20
2023-04-14T10:21:27.986Z,18.33
2023-04-14T10:23:56.836Z,18.07
2023-04-14T10:26:24.325Z,17.90
2023-04-14T10:28:52.580Z,19.07
2023-04-14T10:31:23.155Z,18.50
2023-04-14T10:33:50.386Z,18.13
2023-04-14T10:36:24.962Z,18.47
2023-04-14T10:38:58.255Z,17.80
2023-04-14T10:41:25.678Z,18.23
2023-04-14T10:43:52.865Z,18.40
2023-04-14T10:46:21.882Z,18.07
2023-04-14T10:48:49.674Z,17.63
2023-04-14T10:51:18.292Z,17.92
2023-04-14T10:53:46.726Z,17.90
2023-04-14T10:56:14.251Z,18.17
2023-04-14T10:58:41.765Z,17.37
2023-04-14T11:01:30.127Z,18.00
2023-04-14T11:03:57.916Z,17.23
2023-04-14T11:06:44.031Z,17.13
2023-04-14T11:09:30.056Z,17.17
2023-04-14T11:11:57.705Z,16.92
2023-04-14T11:14:28.551Z,17.48
2023-04-14T11:17:04.021Z,16.65
2023-04-14T11:19:32.721Z,17.20
2023-04-14T11:21:59.913Z,17.25
2023-04-14T11:24:27.192Z,16.83
2023-04-14T11:26:55.561Z,17.08
2023-04-14T11:29:23.890Z,16.40
2023-04-14T11:32:04.309Z,16.92
2023-04-14T11:34:32.833Z,16.88
2023-04-14T11:37:02.240Z,16.08
2023-04-14T11:39:30.010Z,16.52
2023-04-14T11:42:00.728Z,16.85
2023-04-14T11:44:28.042Z,16.33
2023-04-14T11:46:55.376Z,17.10
2023-04-14T11:49:33.390Z,16.27
2023-04-14T11:52:05.323Z,16.65
2023-04-14T11:54:39.689Z,16.70
2023-04-14T11:57:11.061Z,15.85
2023-04-14T11:59:42.297Z,15.77
2023-04-14T12:02:15.645Z,16.27
2023-04-14T12:04:43.112Z,16.77
2023-04-14T12:07:11.938Z,16.08
2023-04-14T12:09:41.155Z,15.55
2023-04-14T12:12:12.174Z,16.23
2023-04-14T12:14:43.785Z,17.77
2023-04-14T12:17:11.302Z,17.35
2023-04-14T12:19:38.821Z,16.27
2023-04-14T12:22:07.890Z,16.38
2023-04-14T12:24:38.611Z,15.48
2023-04-14T12:27:07.106Z,16.33
2023-04-14T12:29:34.881Z,16.33
2023-04-14T12:32:03.145Z,15.55
2023-04-14T12:34:31.411Z,13.23
2023-04-14T12:36:58.676Z,11.77
2023-04-14T12:39:27.597Z,10.93
2023-04-14T12:41:55.738Z,9.88
2023-04-14T12:44:24.448Z,8.90
2023-04-14T12:46:52.690Z,8.93
2023-04-14T12:49:36.450Z,9.27
2023-04-14T12:52:04.668Z,9.45
2023-04-14T12:54:48.155Z,8.85
2023-04-14T12:57:15.482Z,8.95
2023-04-14T12:59:43.260Z,8.38
2023-04-14T13:02:10.565Z,7.82
2023-04-14T13:04:37.838Z,7.68
2023-04-14T13:07:05.077Z,7.80
2023-04-14T13:09:32.225Z,8.60
2023-04-14T13:11:59.517Z,8.20
2023-04-14T13:14:27.083Z,7.32
2023-04-14T13:16:55.983Z,8.00
2023-04-14T13:19:23.300Z,7.13
2023-04-14T13:21:50.934Z,6.88
2023-04-14T13:24:18.244Z,7.28
2023-04-14T13:26:46.224Z,6.40
2023-04-14T13:29:13.450Z,6.55
2023-04-14T13:31:41.185Z,6.63
2023-04-14T13:34:08.622Z,6.22
2023-04-14T13:36:35.973Z,4.88
2023-04-14T13:39:04.162Z,5.60
2023-04-14T13:41:31.777Z,5.88
2023-04-14T13:43:59.022Z,4.45
2023-04-14T13:46:29.372Z,5.05
2023-04-14T13:48:56.682Z,4.47
2023-04-14T13:51:26.993Z,4.30
2023-04-14T13:53:56.224Z,4.50
2023-04-14T13:56:25.677Z,4.50
2023-04-14T13:58:53.149Z,4.47
2023-04-14T14:01:20.786Z,4.47
2023-04-14T14:03:49.914Z,4.13
2023-04-14T14:06:18.889Z,4.65
2023-04-14T14:08:46.185Z,4.25
2023-04-14T14:11:14.033Z,4.72
2023-04-14T14:13:41.369Z,4.70
2023-04-14T14:16:09.454Z,4.38
2023-04-14T14:18:38.100Z,4.63
2023-04-14T14:21:05.745Z,4.45
2023-04-14T14:23:33.115Z,4.22
2023-04-14T14:26:00.811Z,4.00
2023-04-14T14:28:28.187Z,4.07
2023-04-14T14:30:56.116Z,4.00
2023-04-14T14:33:23.544Z,4.13
2023-04-14T14:35:51.114Z,4.10
2023-04-14T14:38:18.498Z,4.60
2023-04-14T14:40:45.684Z,4.80
2023-04-14T14:43:12.858Z,5.75
2023-04-14T14:45:40.063Z,4.97
2023-04-14T14:48:08.955Z,5.03
2023-04-14T14:50:36.553Z,4.00
2023-04-14T14:53:03.704Z,4.30
2023-04-14T14:55:31.050Z,4.38
2023-04-14T14:57:58.489Z,4.47
2023-04-14T15:00:25.842Z,4.63
2023-04-14T15:02:53.509Z,4.50
2023-04-14T15:05:21.027Z,4.50
2023-04-14T15:07:48.232Z,4.80
2023-04-14T15:10:15.613Z,4.95
2023-04-14T15:12:42.856Z,4.90
2023-04-14T15:15:10.518Z,4.72
2023-04-14T15:17:38.018Z,4.72
2023-04-14T15:20:07.519Z,5.75
2023-04-14T15:22:35.969Z,5.13
2023-04-14T15:25:03.205Z,5.32
2023-04-14T15:27:30.384Z,4.70
2023-04-14T15:29:58.042Z,5.10
2023-04-14T15:32:26.855Z,5.47
2023-04-14T15:34:55.156Z,5.20
2023-04-14T15:37:22.397Z,4.65
2023-04-14T15:39:50.250Z,6.40
2023-04-14T15:42:17.440Z,5.88
2023-04-14T15:44:44.636Z,6.30
2023-04-14T15:47:11.999Z,6.68
2023-04-14T15:49:39.179Z,6.53
2023-04-14T15:52:06.768Z,7.13
2023-04-14T15:54:34.078Z,6.55
2023-04-14T15:57:02.376Z,6.43
2023-04-14T15:59:29.996Z,6.25
2023-04-14T16:01:57.951Z,7.22
2023-04-14T16:04:25.588Z,6.57
2023-04-14T16:06:53.897Z,6.97
2023-04-14T16:09:21.164Z,6.75
2023-04-14T16:11:49.141Z,7.13
2023-04-14T16:14:16.469Z,7.78
2023-04-14T16:16:47.340Z,7.63
2023-04-14T16:19:16.158Z,7.93
2023-04-14T16:21:43.418Z,6.57
2023-04-14T16:24:10.674Z,7.45
2023-04-14T16:26:38.486Z,7.53
2023-04-14T16:29:05.953Z,7.55
2023-04-14T16:32:08.568Z,7.85
2023-04-14T16:34:35.840Z,7.70
2023-04-14T16:37:03.138Z,8.20
2023-04-14T16:39:31.611Z,8.15
2023-04-14T16:42:02.038Z,8.13
2023-04-14T16:44:29.481Z,8.10
2023-04-14T16:46:56.705Z,8.32
2023-04-14T16:49:23.856Z,8.48
2023-04-14T16:51:51.054Z,8.55
2023-04-14T16:54:21.684Z,7.63
2023-04-14T16:56:48.842Z,8.15
2023-04-14T16:59:15.987Z,8.63
2023-04-14T17:01:44.698Z,8.55
2023-04-14T17:04:12.421Z,8.27
2023-04-14T17:06:39.730Z,8.48
2023-04-14T17:09:07.181Z,8.77
2023-04-14T17:11:34.442Z,7.97
2023-04-14T17:16:51.775Z,8.73
2023-04-14T17:19:19.692Z,9.60
2023-04-14T17:21:47.042Z,8.68
2023-04-14T17:24:14.939Z,8.57
2023-04-14T17:26:42.052Z,8.75
2023-04-14T17:29:09.603Z,8.75
2023-04-14T17:31:37.213Z,8.55
2023-04-14T17:34:10.418Z,9.20
2023-04-14T17:36:37.903Z,8.93
2023-04-14T17:39:05.126Z,8.57
2023-04-14T17:41:32.322Z,8.50
2023-04-14T17:43:59.480Z,8.63
2023-04-14T17:46:33.618Z,8.68
2023-04-14T17:49:02.062Z,8.45
2023-04-14T17:51:30.152Z,8.18
2023-04-14T17:53:58.094Z,8.27
2023-04-14T17:56:25.721Z,8.07
2023-04-14T17:58:53.094Z,7.72
2023-04-14T18:01:20.439Z,8.32
2023-04-14T18:03:47.655Z,8.10
2023-04-14T18:06:15.521Z,8.13
2023-04-14T18:08:45.393Z,7.85
2023-04-14T18:11:13.053Z,8.30
2023-04-14T18:13:40.329Z,7.35
2023-04-14T18:16:08.605Z,7.65
2023-04-14T18:18:36.588Z,8.32
2023-04-14T18:21:04.373Z,8.10
2023-04-14T18:23:31.627Z,7.97
2023-04-14T18:28:30.626Z,7.65
2023-04-14T18:31:00.867Z,7.63
2023-04-14T18:33:29.634Z,8.23
2023-04-14T18:35:57.957Z,7.47
2023-04-14T18:38:26.040Z,7.60
2023-04-14T18:41:00.761Z,7.57
2023-04-14T18:43:28.326Z,8.18
2023-04-14T18:45:55.727Z,7.78
2023-04-14T18:48:23.156Z,7.68
2023-04-14T18:50:57.808Z,7.30
2023-04-14T18:53:25.011Z,7.97
2023-04-14T18:55:52.638Z,7.43
2023-04-14T18:58:19.921Z,7.50
2023-04-14T19:00:47.511Z,7.00
2023-04-14T19:03:15.332Z,7.07
2023-04-14T19:05:47.063Z,6.85
2023-04-14T19:08:14.447Z,7.38
2023-04-14T19:10:41.779Z,6.90
2023-04-14T19:13:11.209Z,7.75
2023-04-14T19:15:38.599Z,7.93
2023-04-14T19:18:05.885Z,6.82
2023-04-14T19:20:33.662Z,6.82
2023-04-14T19:23:00.867Z,6.72
2023-04-14T19:25:29.331Z,7.03
2023-04-14T19:28:01.348Z,7.68
2023-04-14T19:30:29.287Z,6.63
2023-04-14T19:32:56.654Z,6.82
2023-04-14T19:35:24.046Z,6.80
2023-04-14T19:37:55.743Z,6.72
2023-04-14T19:40:23.214Z,6.78
2023-04-14T19:42:50.701Z,6.82
2023-04-14T19:45:18.507Z,7.28
2023-04-14T19:47:46.412Z,6.63
2023-04-14T19:50:13.611Z,7.18
2023-04-14T19:52:40.828Z,6.82
2023-04-14T19:55:08.298Z,6.85
2023-04-14T19:57:35.423Z,6.65
2023-04-14T20:00:06.757Z,6.88
2023-04-14T20:02:34.450Z,6.40
2023-04-14T20:05:01.661Z,6.97
2023-04-14T20:07:30.740Z,6.57
2023-04-14T20:10:01.765Z,6.88
2023-04-14T20:12:29.400Z,5.95
2023-04-14T20:14:56.733Z,6.30
2023-04-14T20:17:24.065Z,5.50
2023-04-14T20:19:51.461Z,5.93
2023-04-14T20:22:18.630Z,5.13
2023-04-14T20:24:46.547Z,5.65
2023-04-14T20:27:13.840Z,6.80
2023-04-14T20:29:41.081Z,5.18
2023-04-14T20:32:09.423Z,4.45
2023-04-14T20:34:36.564Z,4.93
2023-04-14T20:37:03.776Z,4.63
2023-04-14T20:39:30.954Z,4.55
2023-04-14T20:41:58.167Z,4.43
2023-04-14T20:44:25.332Z,4.50
2023-04-14T20:46:52.925Z,4.80
2023-04-14T20:49:20.128Z,4.80
2023-04-14T20:51:48.947Z,4.38
2023-04-14T20:54:16.512Z,4.38
2023-04-14T20:56:44.174Z,4.82
2023-04-14T20:59:11.401Z,4.88
2023-04-14T21:01:38.845Z,5.35
2023-04-14T21:04:06.150Z,4.72
2023-04-14T21:06:33.364Z,4.68
2023-04-14T21:09:01.350Z,5.10
2023-04-14T21:11:28.730Z,5.35
2023-04-14T21:15:30.410Z,5.35
2023-04-14T21:16:44.989Z,4.90
2023-04-14T21:19:13.375Z,5.47
2023-04-14T21:21:40.609Z,5.18
2023-04-14T21:24:08.330Z,5.20
2023-04-14T21:26:35.732Z,5.43
2023-04-14T21:29:04.051Z,5.68
2023-04-14T21:31:32.026Z,5.05
2023-04-14T21:33:59.452Z,5.38
2023-04-14T21:36:27.451Z,6.00
2023-04-14T21:38:54.702Z,5.30
2023-04-14T21:41:21.845Z,5.63
2023-04-14T21:43:49.059Z,5.60
2023-04-14T21:46:16.253Z,5.35
2023-04-14T21:48:43.492Z,5.80
2023-04-14T21:51:10.802Z,5.30
2023-04-14T21:53:37.975Z,5.88
2023-04-14T21:56:09.733Z,5.32
2023-04-14T21:58:38.513Z,6.25
2023-04-14T22:01:07.247Z,5.28
2023-04-14T22:03:34.569Z,5.88
2023-04-14T22:06:02.795Z,5.90
2023-04-14T22:08:30.024Z,6.10
2023-04-14T22:10:57.421Z,5.68
2023-04-14T22:13:24.899Z,5.70
2023-04-14T22:15:52.303Z,5.45
2023-04-14T22:18:19.484Z,5.40
2023-04-14T22:20:46.634Z,4.65
2023-04-14T22:23:14.067Z,5.97
2023-04-14T22:25:41.490Z,4.65
2023-04-14T22:28:08.834Z,5.22
2023-04-14T22:30:36.086Z,5.28
2023-04-14T22:33:03.338Z,5.57
2023-04-14T22:35:31.033Z,5.13
2023-04-14T22:37:58.200Z,5.38
2023-04-14T22:40:26.052Z,5.20
2023-04-14T22:42:53.277Z,5.30
2023-04-14T22:45:20.609Z,4.57
2023-04-14T22:47:47.833Z,4.57
2023-04-14T22:50:15.361Z,5.28
2023-04-14T22:52:42.915Z,5.53
2023-04-14T22:55:10.164Z,5.63
2023-04-14T22:57:37.642Z,4.90
2023-04-14T23:00:09.075Z,5.22
2023-04-14T23:02:36.750Z,5.10
2023-04-14T23:05:04.493Z,5.65
2023-04-14T23:07:32.085Z,5.28
2023-04-14T23:09:59.282Z,4.78
2023-04-14T23:12:26.450Z,5.25
2023-04-14T23:14:53.643Z,5.63
2023-04-14T23:17:20.912Z,5.93
2023-04-14T23:19:48.145Z,5.22
2023-04-14T23:22:15.497Z,5.80
2023-04-14T23:24:42.950Z,5.60
2023-04-14T23:27:10.238Z,5.15
2023-04-14T23:29:37.803Z,6.40
2023-04-14T23:32:10.681Z,5.70
2023-04-14T23:34:38.218Z,6.00
2023-04-14T23:37:06.427Z,5.50
2023-04-14T23:39:33.597Z,6.10
2023-04-14T23:42:00.757Z,5.30
2023-04-14T23:44:28.066Z,5.75
2023-04-14T23:46:55.369Z,5.43
2023-04-14T23:49:24.334Z,6.05
2023-04-14T23:52:01.929Z,5.77
2023-04-14T23:54:31.063Z,5.33
2023-04-14T23:56:58.436Z,5.73
2023-04-14T23:59:26.304Z,5.53
